Buoy 51523

sailwx.info

Track history (hours):
 
Tides and Currents Weather Stations Pressure Air Temp Water Temp Dewpoint Dewpoint Depression Visibility Wind Speed Wind Dir Waves Ship Positions

Drifting buoy 51523

Last reported at 2015-May-23 04:15 UTC. Time now 2015-May-23 13:18 UTC.
Position N 15°57' W 162°40'.

Water temperature 27.2 ° C

Date/timePositionNaut miles runAvg speedWind from/ knotsBaromVisibWave heightAir tempDewpointWater temp
2015-May-23 04:15N 15°57' W 162°40'0 0.0 27.2
2015-May-23 04:00N 15°57' W 162°40'0 0.0 27.3
2015-May-23 03:00N 15°57' W 162°40'0 0.0 27.3
2015-May-23 02:45N 15°57' W 162°40'0 0.5 27.3
2015-May-23 02:00N 15°57' W 162°39'0 0.0 27.3
2015-May-23 01:45N 15°57' W 162°39'1 0.4 27.3
2015-May-23 00:00N 15°56' W 162°40'1 0.1 27.3
2015-May-22 17:00N 15°57' W 162°41'0 0.0 27.0
2015-May-22 16:45N 15°57' W 162°41'1 0.4 27.0
2015-May-22 13:00N 15°55' W 162°41'0 0.0 27.0
2015-May-22 12:45N 15°55' W 162°41'2 0.7 27.0
2015-May-22 09:30N 15°53' W 162°41'0 0.0 27.1
2015-May-22 08:45N 15°53' W 162°41'2 1.2 27.1
2015-May-22 07:00N 15°52' W 162°39'0 0.1 27.1
2015-May-22 04:45N 15°52' W 162°40'1 0.4 27.2
2015-May-22 03:00N 15°51' W 162°39'0 0.0 27.3
2015-May-22 02:45N 15°51' W 162°39'2 0.3 27.3
2015-May-21 20:45N 15°50' W 162°38'0 0.0 27.0
2015-May-21 20:30N 15°50' W 162°38'2 3.7 27.0
2015-May-21 20:00N 15°50' W 162°36'1 0.1 26.9
2015-May-21 16:00N 15°49' W 162°35'0 0.2 26.9
2015-May-21 13:00N 15°49' W 162°35'1 0.1 26.9
2015-May-21 08:00N 15°49' W 162°35'2 1.0 26.9
2015-May-21 06:30N 15°48' W 162°34'1 0.4 27.0
2015-May-21 05:00N 15°47' W 162°33'0 0.0 27.0
2015-May-21 03:45N 15°47' W 162°33'3 0.3 27.0
2015-May-20 17:45N 15°44' W 162°33'1 0.9 26.9
2015-May-20 16:45N 15°45' W 162°32'0 0.0 26.9
2015-May-20 16:15N 15°45' W 162°32'1 2.7 26.9
2015-May-20 16:00N 15°44' W 162°32'3 0.3 26.9
2015-May-20 07:45N 15°41' W 162°32'1 1.0 26.9
2015-May-20 06:45N 15°41' W 162°32'1 0.5 26.9
2015-May-20 04:15N 15°40' W 162°30'0 0.0 27.0
2015-May-20 04:00N 15°40' W 162°30'1 2.7 27.0
2015-May-20 03:45N 15°40' W 162°31'3 0.9 27.0
2015-May-20 00:45N 15°38' W 162°28'1 0.3 27.0
2015-May-19 20:30N 15°37' W 162°27'1 1.2 26.9
2015-May-19 19:45N 15°36' W 162°28'0 0.0 26.9
2015-May-19 19:00N 15°36' W 162°28'2 0.2 26.9
2015-May-19 12:00N 15°35' W 162°26'0 0.0 26.9
2015-May-19 11:45N 15°35' W 162°26'0 0.0 27.0
2015-May-19 08:45N 15°35' W 162°26'1 1.1 27.0
2015-May-19 08:00N 15°35' W 162°25'0 0.3 27.0
2015-May-19 07:00N 15°35' W 162°25'1 0.4 27.0
2015-May-19 04:45N 15°35' W 162°24'0 0.0 27.0
2015-May-19 04:15N 15°35' W 162°24'0 1.0 27.1
2015-May-19 04:00N 15°35' W 162°24'0 0.0 27.1
2015-May-19 03:45N 15°35' W 162°24'1 4.0 27.1
2015-May-19 03:30N 15°34' W 162°25'0 0.0 27.1
2015-May-19 02:00N 15°34' W 162°25'0 0.5 27.1
2015-May-19 01:00N 15°33' W 162°25'2 8.6 27.1
2015-May-19 00:45N 15°31' W 162°25'2 0.3 27.1
2015-May-18 20:00N 15°30' W 162°24'0 0.0 27.0
2015-May-18 19:15N 15°30' W 162°24'0 0.0 27.0
2015-May-18 18:00N 15°30' W 162°24'0 0.0 26.9
2015-May-18 17:00N 15°30' W 162°24'0 1.0 26.9
2015-May-18 16:45N 15°30' W 162°23'0 0.0 26.9
2015-May-18 16:30N 15°30' W 162°23'0 1.3 26.9
2015-May-18 16:15N 15°30' W 162°23'0 0.0 26.9
2015-May-18 15:15N 15°30' W 162°23'0 0.0 27.0
2015-May-18 15:00N 15°30' W 162°23'0 0.5 26.9
2015-May-18 14:45N 15°30' W 162°23'3 1.1 27.0
2015-May-18 12:00N 15°27' W 162°23'0 0.0 27.0
2015-May-18 09:15N 15°27' W 162°23'0 0.0 27.0
2015-May-18 09:00N 15°27' W 162°23'2 2.1 27.0
2015-May-18 08:15N 15°26' W 162°21'1 1.3 27.0
2015-May-18 07:30N 15°26' W 162°21'0 0.0 27.0
2015-May-18 06:45N 15°26' W 162°21'1 0.2 27.0
2015-May-18 04:30N 15°25' W 162°21'1 3.2 27.0
2015-May-18 04:15N 15°25' W 162°20'0 0.3 27.0
2015-May-18 04:00N 15°25' W 162°20'1 3.2 27.0
2015-May-18 03:45N 15°25' W 162°20'0 0.0 27.1
2015-May-18 02:15N 15°25' W 162°20'0 0.0 27.1
2015-May-18 02:00N 15°25' W 162°20'1 1.1 27.1
2015-May-18 01:15N 15°24' W 162°19'0 1.7 27.0
2015-May-18 01:00N 15°24' W 162°19'0 0.0 27.1
2015-May-17 23:30N 15°24' W 162°19'0 0.0 27.1
2015-May-17 23:15N 15°24' W 162°19'0 0.0 27.0
2015-May-17 21:15N 15°24' W 162°19'1 1.5 27.0
2015-May-17 20:30N 15°23' W 162°18'1 0.7 27.0
2015-May-17 19:45N 15°23' W 162°18'0 0.1 27.0
2015-May-17 15:00N 15°22' W 162°18'0 0.4 27.0
2015-May-17 14:00N 15°22' W 162°17'0 0.0 27.0
2015-May-17 13:45N 15°22' W 162°17'3 0.4 27.0
2015-May-17 07:00N 15°19' W 162°18'1 0.4 27.0
2015-May-17 04:15N 15°18' W 162°17'0 1.9 27.1
2015-May-17 04:00N 15°18' W 162°17'0 0.6 27.1
2015-May-17 03:15N 15°18' W 162°17'0 0.0 27.1
2015-May-17 03:00N 15°18' W 162°17'1 0.3 27.1
2015-May-17 01:15N 15°17' W 162°17'3 0.6 27.1
2015-May-16 20:00N 15°15' W 162°15'0 0.1 27.0
2015-May-16 17:15N 15°14' W 162°15'0 0.0 27.0
2015-May-16 17:00N 15°14' W 162°15'0 0.0 27.0
2015-May-16 16:45N 15°14' W 162°15'1 1.3 27.0
2015-May-16 16:15N 15°14' W 162°15'0 0.0 27.0
2015-May-16 16:00N 15°14' W 162°15'0 0.1 27.0
2015-May-16 14:15N 15°14' W 162°15'0 0.0 27.0
2015-May-16 14:00N 15°14' W 162°15'4 0.7 27.0
2015-May-16 08:00N 15°10' W 162°13'2 3.3 27.0
2015-May-16 07:30N 15°12' W 162°14'2 0.8 27.0
2015-May-16 04:45N 15°09' W 162°14'0 0.0 27.1
2015-May-16 04:30N 15°09' W 162°14'1 0.3 27.1
2015-May-16 00:00N 15°08' W 162°13'3 0.4 27.1
2015-May-15 17:00N 15°06' W 162°12'0 0.4 27.0
2015-May-15 16:15N 15°06' W 162°11'0 1.2 27.0
2015-May-15 16:00N 15°06' W 162°12'1 0.5 27.0
2015-May-15 14:45N 15°06' W 162°11'3 0.4 27.0
2015-May-15 06:45N 15°02' W 162°11'0 0.2 27.0
2015-May-15 04:30N 15°02' W 162°11'1 2.8 27.0
2015-May-15 04:15N 15°02' W 162°10'1 4.6 27.0
2015-May-15 04:00N 15°01' W 162°11'0 0.1 27.0
2015-May-15 01:45N 15°01' W 162°10'0 0.0 27.1
2015-May-15 01:30N 15°01' W 162°10'1 0.8 27.0
2015-May-15 00:00N 14°60' W 162°10'2 0.5 27.0
2015-May-14 19:45N 14°58' W 162°10'0 0.0 27.0
2015-May-14 17:00N 14°58' W 162°10'2 0.4 27.0
2015-May-14 13:00N 14°57' W 162°09'0 0.0 27.0
2015-May-14 12:45N 14°57' W 162°09'1 0.2 27.0
2015-May-14 09:00N 14°56' W 162°09'0 0.0 27.0
2015-May-14 08:45N 14°56' W 162°09'1 2.2 27.0
2015-May-14 08:15N 14°56' W 162°08'1 3.3 27.0
2015-May-14 08:00N 14°55' W 162°09'0 0.0 27.0
2015-May-14 07:15N 14°55' W 162°09'1 2.9 27.0
2015-May-14 07:00N 14°56' W 162°09'0 0.2 27.0
2015-May-14 04:45N 14°55' W 162°09'1 2.7 27.0
2015-May-14 04:30N 14°55' W 162°09'1 1.4 27.0
2015-May-14 04:00N 14°54' W 162°09'1 0.8 27.1
2015-May-14 03:00N 14°54' W 162°09'0 0.0 27.1
2015-May-14 02:45N 14°54' W 162°09'1 1.2 27.1
2015-May-14 02:00N 14°53' W 162°09'0 0.0 27.1
2015-May-14 01:45N 14°53' W 162°09'0 0.0 27.1
2015-May-14 00:15N 14°53' W 162°09'1 2.6 27.1
2015-May-14 00:00N 14°53' W 162°08'0 0.0 27.1
2015-May-13 21:45N 14°53' W 162°08'0 0.0 27.0
2015-May-13 21:00N 14°53' W 162°08'0 0.0 27.0
2015-May-13 20:45N 14°53' W 162°08'1 1.2 27.0
2015-May-13 20:15N 14°52' W 162°08'0 0.0 27.0
2015-May-13 20:00N 14°52' W 162°08'0 0.0 27.0
2015-May-13 19:15N 14°52' W 162°08'1 0.4 27.0
2015-May-13 17:15N 14°51' W 162°09'2 1.5 27.0
2015-May-13 15:45N 14°49' W 162°09'0 0.0 27.0
2015-May-13 15:30N 14°49' W 162°09'0 0.0 27.0
2015-May-13 12:45N 14°49' W 162°09'1 0.2 27.0
2015-May-13 07:45N 14°49' W 162°07'1 0.2 27.0
2015-May-13 05:00N 14°48' W 162°08'   27.0
Track history (hours):
 
Tides and Currents Weather Stations Pressure Air Temp Water Temp Dewpoint Dewpoint Depression Visibility Wind Speed Wind Dir Waves Ship Positions

Drifting buoy 51523

Last reported at 2015-May-23 04:15 UTC. Time now 2015-May-23 13:18 UTC.
Position N 15°57' W 162°40'.

Water temperature 27.2 ° C

Date/timePositionNaut miles runAvg speedWind from/ knotsBaromVisibWave heightAir tempDewpointWater temp
2015-May-23 04:15N 15°57' W 162°40'0 0.0 27.2
2015-May-23 04:00N 15°57' W 162°40'0 0.0 27.3
2015-May-23 03:00N 15°57' W 162°40'0 0.0 27.3
2015-May-23 02:45N 15°57' W 162°40'0 0.5 27.3
2015-May-23 02:00N 15°57' W 162°39'0 0.0 27.3
2015-May-23 01:45N 15°57' W 162°39'1 0.4 27.3
2015-May-23 00:00N 15°56' W 162°40'1 0.1 27.3
2015-May-22 17:00N 15°57' W 162°41'0 0.0 27.0
2015-May-22 16:45N 15°57' W 162°41'1 0.4 27.0
2015-May-22 13:00N 15°55' W 162°41'0 0.0 27.0
2015-May-22 12:45N 15°55' W 162°41'2 0.7 27.0
2015-May-22 09:30N 15°53' W 162°41'0 0.0 27.1
2015-May-22 08:45N 15°53' W 162°41'2 1.2 27.1
2015-May-22 07:00N 15°52' W 162°39'0 0.1 27.1
2015-May-22 04:45N 15°52' W 162°40'1 0.4 27.2
2015-May-22 03:00N 15°51' W 162°39'0 0.0 27.3
2015-May-22 02:45N 15°51' W 162°39'2 0.3 27.3
2015-May-21 20:45N 15°50' W 162°38'0 0.0 27.0
2015-May-21 20:30N 15°50' W 162°38'2 3.7 27.0
2015-May-21 20:00N 15°50' W 162°36'1 0.1 26.9
2015-May-21 16:00N 15°49' W 162°35'0 0.2 26.9
2015-May-21 13:00N 15°49' W 162°35'1 0.1 26.9
2015-May-21 08:00N 15°49' W 162°35'2 1.0 26.9
2015-May-21 06:30N 15°48' W 162°34'1 0.4 27.0
2015-May-21 05:00N 15°47' W 162°33'0 0.0 27.0
2015-May-21 03:45N 15°47' W 162°33'3 0.3 27.0
2015-May-20 17:45N 15°44' W 162°33'1 0.9 26.9
2015-May-20 16:45N 15°45' W 162°32'0 0.0 26.9
2015-May-20 16:15N 15°45' W 162°32'1 2.7 26.9
2015-May-20 16:00N 15°44' W 162°32'3 0.3 26.9
2015-May-20 07:45N 15°41' W 162°32'1 1.0 26.9
2015-May-20 06:45N 15°41' W 162°32'1 0.5 26.9
2015-May-20 04:15N 15°40' W 162°30'0 0.0 27.0
2015-May-20 04:00N 15°40' W 162°30'1 2.7 27.0
2015-May-20 03:45N 15°40' W 162°31'3 0.9 27.0
2015-May-20 00:45N 15°38' W 162°28'1 0.3 27.0
2015-May-19 20:30N 15°37' W 162°27'1 1.2 26.9
2015-May-19 19:45N 15°36' W 162°28'0 0.0 26.9
2015-May-19 19:00N 15°36' W 162°28'2 0.2 26.9
2015-May-19 12:00N 15°35' W 162°26'0 0.0 26.9
2015-May-19 11:45N 15°35' W 162°26'0 0.0 27.0
2015-May-19 08:45N 15°35' W 162°26'1 1.1 27.0
2015-May-19 08:00N 15°35' W 162°25'0 0.3 27.0
2015-May-19 07:00N 15°35' W 162°25'1 0.4 27.0
2015-May-19 04:45N 15°35' W 162°24'0 0.0 27.0
2015-May-19 04:15N 15°35' W 162°24'0 1.0 27.1
2015-May-19 04:00N 15°35' W 162°24'0 0.0 27.1
2015-May-19 03:45N 15°35' W 162°24'1 4.0 27.1
2015-May-19 03:30N 15°34' W 162°25'0 0.0 27.1
2015-May-19 02:00N 15°34' W 162°25'0 0.5 27.1
2015-May-19 01:00N 15°33' W 162°25'2 8.6 27.1
2015-May-19 00:45N 15°31' W 162°25'2 0.3 27.1
2015-May-18 20:00N 15°30' W 162°24'0 0.0 27.0
2015-May-18 19:15N 15°30' W 162°24'0 0.0 27.0
2015-May-18 18:00N 15°30' W 162°24'0 0.0 26.9
2015-May-18 17:00N 15°30' W 162°24'0 1.0 26.9
2015-May-18 16:45N 15°30' W 162°23'0 0.0 26.9
2015-May-18 16:30N 15°30' W 162°23'0 1.3 26.9
2015-May-18 16:15N 15°30' W 162°23'0 0.0 26.9
2015-May-18 15:15N 15°30' W 162°23'0 0.0 27.0
2015-May-18 15:00N 15°30' W 162°23'0 0.5 26.9
2015-May-18 14:45N 15°30' W 162°23'3 1.1 27.0
2015-May-18 12:00N 15°27' W 162°23'0 0.0 27.0
2015-May-18 09:15N 15°27' W 162°23'0 0.0 27.0
2015-May-18 09:00N 15°27' W 162°23'2 2.1 27.0
2015-May-18 08:15N 15°26' W 162°21'1 1.3 27.0
2015-May-18 07:30N 15°26' W 162°21'0 0.0 27.0
2015-May-18 06:45N 15°26' W 162°21'1 0.2 27.0
2015-May-18 04:30N 15°25' W 162°21'1 3.2 27.0
2015-May-18 04:15N 15°25' W 162°20'0 0.3 27.0
2015-May-18 04:00N 15°25' W 162°20'1 3.2 27.0
2015-May-18 03:45N 15°25' W 162°20'0 0.0 27.1
2015-May-18 02:15N 15°25' W 162°20'0 0.0 27.1
2015-May-18 02:00N 15°25' W 162°20'1 1.1 27.1
2015-May-18 01:15N 15°24' W 162°19'0 1.7 27.0
2015-May-18 01:00N 15°24' W 162°19'0 0.0 27.1
2015-May-17 23:30N 15°24' W 162°19'0 0.0 27.1
2015-May-17 23:15N 15°24' W 162°19'0 0.0 27.0
2015-May-17 21:15N 15°24' W 162°19'1 1.5 27.0
2015-May-17 20:30N 15°23' W 162°18'1 0.7 27.0
2015-May-17 19:45N 15°23' W 162°18'0 0.1 27.0
2015-May-17 15:00N 15°22' W 162°18'0 0.4 27.0
2015-May-17 14:00N 15°22' W 162°17'0 0.0 27.0
2015-May-17 13:45N 15°22' W 162°17'3 0.4 27.0
2015-May-17 07:00N 15°19' W 162°18'1 0.4 27.0
2015-May-17 04:15N 15°18' W 162°17'0 1.9 27.1
2015-May-17 04:00N 15°18' W 162°17'0 0.6 27.1
2015-May-17 03:15N 15°18' W 162°17'0 0.0 27.1
2015-May-17 03:00N 15°18' W 162°17'1 0.3 27.1
2015-May-17 01:15N 15°17' W 162°17'3 0.6 27.1
2015-May-16 20:00N 15°15' W 162°15'0 0.1 27.0
2015-May-16 17:15N 15°14' W 162°15'0 0.0 27.0
2015-May-16 17:00N 15°14' W 162°15'0 0.0 27.0
2015-May-16 16:45N 15°14' W 162°15'1 1.3 27.0
2015-May-16 16:15N 15°14' W 162°15'0 0.0 27.0
2015-May-16 16:00N 15°14' W 162°15'0 0.1 27.0
2015-May-16 14:15N 15°14' W 162°15'0 0.0 27.0
2015-May-16 14:00N 15°14' W 162°15'4 0.7 27.0
2015-May-16 08:00N 15°10' W 162°13'2 3.3 27.0
2015-May-16 07:30N 15°12' W 162°14'2 0.8 27.0
2015-May-16 04:45N 15°09' W 162°14'0 0.0 27.1
2015-May-16 04:30N 15°09' W 162°14'1 0.3 27.1
2015-May-16 00:00N 15°08' W 162°13'3 0.4 27.1
2015-May-15 17:00N 15°06' W 162°12'0 0.4 27.0
2015-May-15 16:15N 15°06' W 162°11'0 1.2 27.0
2015-May-15 16:00N 15°06' W 162°12'1 0.5 27.0
2015-May-15 14:45N 15°06' W 162°11'3 0.4 27.0
2015-May-15 06:45N 15°02' W 162°11'0 0.2 27.0
2015-May-15 04:30N 15°02' W 162°11'1 2.8 27.0
2015-May-15 04:15N 15°02' W 162°10'1 4.6 27.0
2015-May-15 04:00N 15°01' W 162°11'0 0.1 27.0
2015-May-15 01:45N 15°01' W 162°10'0 0.0 27.1
2015-May-15 01:30N 15°01' W 162°10'1 0.8 27.0
2015-May-15 00:00N 14°60' W 162°10'2 0.5 27.0
2015-May-14 19:45N 14°58' W 162°10'0 0.0 27.0
2015-May-14 17:00N 14°58' W 162°10'2 0.4 27.0
2015-May-14 13:00N 14°57' W 162°09'0 0.0 27.0
2015-May-14 12:45N 14°57' W 162°09'1 0.2 27.0
2015-May-14 09:00N 14°56' W 162°09'0 0.0 27.0
2015-May-14 08:45N 14°56' W 162°09'1 2.2 27.0
2015-May-14 08:15N 14°56' W 162°08'1 3.3 27.0
2015-May-14 08:00N 14°55' W 162°09'0 0.0 27.0
2015-May-14 07:15N 14°55' W 162°09'1 2.9 27.0
2015-May-14 07:00N 14°56' W 162°09'0 0.2 27.0
2015-May-14 04:45N 14°55' W 162°09'1 2.7 27.0
2015-May-14 04:30N 14°55' W 162°09'1 1.4 27.0
2015-May-14 04:00N 14°54' W 162°09'1 0.8 27.1
2015-May-14 03:00N 14°54' W 162°09'0 0.0 27.1
2015-May-14 02:45N 14°54' W 162°09'1 1.2 27.1
2015-May-14 02:00N 14°53' W 162°09'0 0.0 27.1
2015-May-14 01:45N 14°53' W 162°09'0 0.0 27.1
2015-May-14 00:15N 14°53' W 162°09'1 2.6 27.1
2015-May-14 00:00N 14°53' W 162°08'0 0.0 27.1
2015-May-13 21:45N 14°53' W 162°08'0 0.0 27.0
2015-May-13 21:00N 14°53' W 162°08'0 0.0 27.0
2015-May-13 20:45N 14°53' W 162°08'1 1.2 27.0
2015-May-13 20:15N 14°52' W 162°08'0 0.0 27.0
2015-May-13 20:00N 14°52' W 162°08'0 0.0 27.0
2015-May-13 19:15N 14°52' W 162°08'1 0.4 27.0
2015-May-13 17:15N 14°51' W 162°09'2 1.5 27.0
2015-May-13 15:45N 14°49' W 162°09'0 0.0 27.0
2015-May-13 15:30N 14°49' W 162°09'0 0.0 27.0
2015-May-13 12:45N 14°49' W 162°09'1 0.2 27.0
2015-May-13 07:45N 14°49' W 162°07'1 0.2 27.0
2015-May-13 05:00N 14°48' W 162°08'   27.0

Dump ship's entire track history